Time;durP1;ratioP1;P1;durP2;ratioP2;P2;SDS_P1;SDS_P2;PMS_P1;PMS_P2;Temp;Humidity;BMP_temperature;BMP_pressure;BME280_temperature;BME280_humidity;BME280_pressure;Samples;Min_cycle;Max_cycle;Signal;HPM_P1;HPM_P2
2023/04/17 00:02:29;;;;;;;28.60;17.70;;;;;;;6.36;100.00;97034.34;10459958;28;20246;-66
2023/04/17 00:07:29;;;;;;;29.00;17.77;;;;;;;6.28;100.00;97041.94;10460253;28;20271;-67
2023/04/17 00:12:29;;;;;;;31.93;17.50;;;;;;;6.37;100.00;97041.22;10460353;28;20261;-66
2023/04/17 00:17:30;;;;;;;33.03;18.33;;;;;;;6.28;100.00;97039.34;10459965;28;20192;-66
2023/04/17 00:22:30;;;;;;;43.13;20.43;;;;;;;6.27;100.00;97042.06;10459347;28;20349;-66
2023/04/17 00:27:31;;;;;;;43.47;20.80;;;;;;;6.29;100.00;97046.19;10459773;28;20192;-66
2023/04/17 00:32:31;;;;;;;37.80;20.30;;;;;;;6.38;100.00;97045.44;10459146;28;20258;-66
2023/04/17 00:37:31;;;;;;;33.97;18.40;;;;;;;6.35;100.00;97037.88;10459424;28;20200;-66
2023/04/17 00:42:32;;;;;;;29.70;17.63;;;;;;;6.32;100.00;97045.13;10412959;28;20238;-66
2023/04/17 00:47:32;;;;;;;34.63;18.53;;;;;;;6.19;100.00;97045.28;10417234;28;20265;-67
2023/04/17 00:52:32;;;;;;;32.17;18.50;;;;;;;6.22;100.00;97042.44;10416947;28;20271;-66
2023/04/17 00:57:33;;;;;;;28.80;17.63;;;;;;;6.28;100.00;97054.94;10416726;28;20184;-66
2023/04/17 01:02:33;;;;;;;26.23;16.43;;;;;;;6.21;100.00;97049.38;10399128;28;20256;-67
2023/04/17 01:07:35;;;;;;;22.10;13.97;;;;;;;6.22;100.00;97047.63;10416713;28;20188;-67
2023/04/17 01:12:35;;;;;;;23.03;14.50;;;;;;;6.18;100.00;97056.63;10398792;28;20208;-66
2023/04/17 01:17:36;;;;;;;21.27;14.17;;;;;;;6.15;100.00;97043.84;10398457;28;20185;-67
2023/04/17 01:22:36;;;;;;;23.80;14.03;;;;;;;6.19;100.00;97046.09;10416298;28;20279;-66
2023/04/17 01:27:37;;;;;;;21.70;13.63;;;;;;;6.17;100.00;97047.16;10398438;28;20188;-67
2023/04/17 01:32:37;;;;;;;21.67;13.53;;;;;;;6.19;100.00;97045.28;10397993;28;20200;-66
2023/04/17 01:37:38;;;;;;;23.13;14.53;;;;;;;6.30;100.00;97042.63;10415831;28;20670;-66
2023/04/17 01:42:39;;;;;;;24.37;15.23;;;;;;;6.24;100.00;97043.13;10425631;28;20847;-66
2023/04/17 01:47:39;;;;;;;21.90;14.23;;;;;;;6.25;100.00;97039.59;10438803;28;20200;-67
2023/04/17 01:52:40;;;;;;;20.17;12.97;;;;;;;6.08;100.00;97043.50;10438347;28;20254;-67
2023/04/17 01:57:41;;;;;;;20.30;12.83;;;;;;;6.11;100.00;97042.44;10438391;28;20194;-66
2023/04/17 02:02:41;;;;;;;17.17;11.23;;;;;;;6.14;100.00;97034.38;10437864;28;20235;-66
2023/04/17 02:07:41;;;;;;;14.90;10.03;;;;;;;6.15;100.00;97038.66;10437841;28;20196;-66
2023/04/17 02:12:42;;;;;;;16.50;10.37;;;;;;;6.05;100.00;97034.16;10437607;28;20216;-66
2023/04/17 02:17:42;;;;;;;16.43;10.83;;;;;;;6.02;100.00;97034.41;10437427;28;20194;-66
2023/04/17 02:22:44;;;;;;;15.63;10.07;;;;;;;6.09;100.00;97039.13;10436451;28;20248;-66
2023/04/17 02:27:45;;;;;;;14.30;9.10;;;;;;;6.05;100.00;97035.94;10437060;28;20282;-66
2023/04/17 02:32:45;;;;;;;12.87;9.37;;;;;;;6.04;100.00;97039.50;10454690;28;20287;-67
2023/04/17 02:37:46;;;;;;;13.60;9.87;;;;;;;6.07;100.00;97040.06;10454428;28;20253;-66
2023/04/17 02:42:47;;;;;;;13.10;9.13;;;;;;;5.95;100.00;97037.56;10454371;28;20235;-67
2023/04/17 02:47:47;;;;;;;12.07;8.67;;;;;;;5.94;100.00;97025.50;10424315;28;20549;-67
2023/04/17 02:52:48;;;;;;;12.47;8.37;;;;;;;5.87;100.00;97025.19;10394938;28;20208;-67
2023/04/17 02:57:48;;;;;;;13.17;8.73;;;;;;;5.87;100.00;97028.59;10413457;28;20274;-67
2023/04/17 03:02:49;;;;;;;13.20;9.10;;;;;;;5.86;100.00;97026.94;10420345;28;20235;-67
2023/04/17 03:07:50;;;;;;;9.53;7.50;;;;;;;5.90;100.00;97024.94;10435628;28;20192;-67
2023/04/17 03:12:51;;;;;;;14.23;9.03;;;;;;;5.84;100.00;97021.03;10435197;28;20222;-67
2023/04/17 03:17:52;;;;;;;12.40;8.30;;;;;;;5.77;100.00;97030.25;10435248;28;20654;-67
2023/04/17 03:22:52;;;;;;;10.33;7.40;;;;;;;5.82;100.00;97019.47;10435007;28;20310;-67
2023/04/17 03:27:53;;;;;;;11.70;7.60;;;;;;;5.80;100.00;97026.59;10452666;28;20713;-67
2023/04/17 03:32:56;;;;;;;9.40;6.90;;;;;;;5.78;100.00;97034.50;10434480;28;20204;-67
2023/04/17 03:37:56;;;;;;;10.83;6.87;;;;;;;5.82;100.00;97041.13;10452042;28;20596;-66
2023/04/17 03:42:57;;;;;;;9.23;6.50;;;;;;;5.87;100.00;97035.56;10502950;23;20234;-64
2023/04/17 03:47:57;;;;;;;8.47;6.30;;;;;;;5.86;100.00;97039.09;10533044;28;20198;-66
2023/04/17 03:52:58;;;;;;;6.93;5.90;;;;;;;5.80;100.00;97039.59;10517176;28;20220;-66
2023/04/17 03:58:01;;;;;;;6.50;5.57;;;;;;;5.76;100.00;97046.81;10517345;28;20286;-65
2023/04/17 04:03:04;;;;;;;8.87;6.30;;;;;;;5.80;100.00;97040.41;10516637;28;20226;-66
2023/04/17 04:08:11;;;;;;;10.13;6.50;;;;;;;5.81;100.00;97043.84;10516872;28;20222;-66
2023/04/17 04:13:19;;;;;;;8.40;6.63;;;;;;;5.80;100.00;97047.38;10516782;28;20206;-66
2023/04/17 04:18:25;;;;;;;9.50;7.00;;;;;;;5.89;100.00;97051.88;10517037;28;20210;-66
2023/04/17 04:23:29;;;;;;;10.47;7.53;;;;;;;5.87;100.00;97049.38;10516663;28;20253;-65
2023/04/17 04:28:29;;;;;;;10.20;7.13;;;;;;;5.86;100.00;97047.72;10516937;28;20732;-66
2023/04/17 04:33:30;;;;;;;9.00;6.33;;;;;;;5.94;100.00;97056.72;10516153;28;20210;-64
2023/04/17 04:38:31;;;;;;;8.67;6.70;;;;;;;5.89;100.00;97057.88;10516384;28;20214;-65
2023/04/17 04:43:38;;;;;;;7.13;5.33;;;;;;;5.96;100.00;97060.84;10516183;28;20598;-66
2023/04/17 04:48:40;;;;;;;7.10;4.70;;;;;;;5.88;100.00;97055.41;10523419;28;20264;-66
2023/04/17 04:53:40;;;;;;;5.90;4.50;;;;;;;5.99;100.00;97059.84;10523652;28;20637;-65
2023/04/17 04:58:41;;;;;;;6.47;5.00;;;;;;;5.88;100.00;97058.00;10523439;28;20233;-66
2023/04/17 05:03:46;;;;;;;6.23;4.57;;;;;;;5.89;100.00;97065.69;10523011;28;20333;-65
2023/04/17 05:08:53;;;;;;;5.57;3.93;;;;;;;5.98;100.00;97059.00;10523418;28;20184;-66
2023/04/17 05:13:53;;;;;;;7.23;5.83;;;;;;;5.99;100.00;97070.25;10523512;28;20210;-66
2023/04/17 05:18:59;;;;;;;6.03;4.93;;;;;;;6.02;100.00;97067.41;10522529;28;20701;-66
2023/04/17 05:24:22;;;;;;;6.20;3.53;;;;;;;6.06;100.00;97071.41;10529293;28;20215;-66
2023/04/17 05:29:24;;;;;;;3.93;3.00;;;;;;;6.10;100.00;97074.59;10522342;28;20270;-66
2023/04/17 05:34:24;;;;;;;2.50;2.20;;;;;;;6.10;100.00;97085.00;10521986;28;20684;-64
2023/04/17 05:39:25;;;;;;;2.60;2.40;;;;;;;6.11;100.00;97076.25;10539651;28;20218;-66
2023/04/17 05:44:25;;;;;;;2.13;1.93;;;;;;;6.12;100.00;97070.91;10521630;28;20238;-65
2023/04/17 05:49:29;;;;;;;1.97;1.83;;;;;;;6.19;100.00;97071.28;10521283;28;20569;-65
2023/04/17 05:54:29;;;;;;;2.33;2.13;;;;;;;6.34;100.00;97070.06;10530411;28;20206;-65
2023/04/17 05:59:31;;;;;;;2.23;2.00;;;;;;;6.36;100.00;97068.16;10512004;28;20225;-67
2023/04/17 06:04:32;;;;;;;2.10;1.90;;;;;;;6.36;100.00;97068.16;10520842;28;20289;-65
2023/04/17 06:09:33;;;;;;;2.10;2.00;;;;;;;6.38;100.00;97065.44;10520968;28;20183;-65
2023/04/17 06:14:33;;;;;;;1.93;1.80;;;;;;;6.40;100.00;97069.59;10538551;28;20190;-65
2023/04/17 06:19:38;;;;;;;2.87;1.90;;;;;;;6.33;100.00;97068.41;10520209;28;20730;-66
2023/04/17 06:24:40;;;;;;;2.00;1.90;;;;;;;6.25;100.00;97066.41;10520226;28;20218;-64
2023/04/17 06:29:40;;;;;;;1.80;1.70;;;;;;;6.16;100.00;97084.53;10538025;28;20210;-65
2023/04/17 06:34:41;;;;;;;2.33;1.93;;;;;;;6.29;100.00;97085.19;10507057;28;20198;-65
2023/04/17 06:39:43;;;;;;;1.90;1.80;;;;;;;6.38;100.00;97087.06;10496054;28;20206;-65
2023/04/17 06:44:43;;;;;;;2.13;2.03;;;;;;;6.29;100.00;97095.59;10495173;28;20269;-66
2023/04/17 06:49:46;;;;;;;4.43;2.70;;;;;;;6.22;100.00;97102.25;10495541;28;20601;-64
2023/04/17 06:54:47;;;;;;;4.60;3.20;;;;;;;6.28;100.00;97108.75;10492392;28;20187;-67
2023/04/17 06:59:47;;;;;;;3.90;3.53;;;;;;;6.28;100.00;97114.78;10511632;28;20202;-65
2023/04/17 07:04:48;;;;;;;4.97;3.60;;;;;;;6.36;100.00;97122.00;10510052;28;20186;-63
2023/04/17 07:09:48;;;;;;;3.10;2.90;;;;;;;6.55;100.00;97129.16;10516465;28;20270;-64
2023/04/17 07:14:49;;;;;;;3.60;3.30;;;;;;;6.50;100.00;97126.13;10500175;28;20201;-64
2023/04/17 07:19:49;;;;;;;4.10;3.70;;;;;;;6.56;100.00;97134.25;10492711;28;20219;-66
2023/04/17 07:24:49;;;;;;;4.87;3.70;;;;;;;6.74;100.00;97128.56;10492850;28;20735;-66
2023/04/17 07:29:53;;;;;;;4.57;4.17;;;;;;;7.00;100.00;97133.44;10492577;28;20215;-65
2023/04/17 07:34:53;;;;;;;5.67;4.93;;;;;;;6.95;100.00;97132.06;10492755;28;20202;-66
2023/04/17 07:39:54;;;;;;;7.00;5.57;;;;;;;6.97;100.00;97130.13;10492701;28;20303;-65
2023/04/17 07:44:54;;;;;;;8.57;5.70;;;;;;;7.14;100.00;97128.78;10514000;28;20187;-67
2023/04/17 07:49:55;;;;;;;8.43;4.50;;;;;;;6.97;100.00;97130.13;10504771;28;20221;-65
2023/04/17 07:54:55;;;;;;;6.40;4.73;;;;;;;7.05;100.00;97137.34;10500737;28;20226;-66
2023/04/17 07:59:56;;;;;;;6.03;4.30;;;;;;;6.79;100.00;97147.25;10523749;28;20271;-65
2023/04/17 08:04:56;;;;;;;5.70;5.20;;;;;;;7.02;100.00;97136.75;10524902;28;20186;-66
2023/04/17 08:09:57;;;;;;;11.27;5.73;;;;;;;7.25;100.00;97143.53;10534017;28;20296;-66
2023/04/17 08:14:57;;;;;;;4.87;4.33;;;;;;;6.97;100.00;97144.94;10515442;28;20550;-66
2023/04/17 08:19:57;;;;;;;5.17;4.67;;;;;;;6.98;100.00;97141.38;10532327;28;20610;-66
2023/04/17 08:24:58;;;;;;;5.20;4.80;;;;;;;7.14;100.00;97147.00;10541326;28;20930;-65
2023/04/17 08:29:58;;;;;;;5.17;4.60;;;;;;;7.00;100.00;97152.50;10541497;28;20230;-66
2023/04/17 08:34:59;;;;;;;5.47;4.97;;;;;;;7.02;100.00;97152.41;10541125;28;20302;-66
2023/04/17 08:39:59;;;;;;;7.77;5.60;;;;;;;7.26;100.00;97157.41;10534739;28;20222;-66
2023/04/17 08:45:03;;;;;;;5.30;4.73;;;;;;;7.47;100.00;97158.25;10541027;28;20191;-65
2023/04/17 08:50:12;;;;;;;6.07;4.30;;;;;;;6.86;100.00;97150.16;10539551;28;20219;-65
2023/04/17 08:55:16;;;;;;;8.27;5.30;;;;;;;7.02;100.00;97141.97;10540045;28;20256;-65
2023/04/17 09:00:31;;;;;;;10.00;7.93;;;;;;;6.71;100.00;97154.84;10540475;28;20275;-66
2023/04/17 09:05:35;;;;;;;6.83;5.53;;;;;;;6.65;100.00;97163.94;10539517;28;20186;-65
2023/04/17 09:10:44;;;;;;;9.27;6.43;;;;;;;6.38;100.00;97170.34;10521647;28;20213;-65
2023/04/17 09:15:45;;;;;;;7.33;6.53;;;;;;;6.38;100.00;97180.75;10513520;28;20196;-65
2023/04/17 09:20:50;;;;;;;14.17;9.70;;;;;;;6.38;100.00;97193.78;10516536;28;20223;-65
2023/04/17 09:26:09;;;;;;;14.30;9.57;;;;;;;6.45;100.00;97190.69;10516401;28;20191;-65
2023/04/17 09:31:15;;;;;;;13.83;9.70;;;;;;;6.14;100.00;97191.28;10499528;28;20222;-65
2023/04/17 09:36:20;;;;;;;7.77;7.03;;;;;;;6.59;100.00;97191.28;10515431;28;20791;-65
2023/04/17 09:41:31;;;;;;;12.07;8.13;;;;;;;6.55;100.00;97192.47;10511268;28;20230;-66
2023/04/17 09:46:44;;;;;;;11.27;9.27;;;;;;;6.87;100.00;97190.91;10516623;28;20690;-65
2023/04/17 09:51:46;;;;;;;8.03;6.77;;;;;;;6.87;100.00;97190.91;10536415;28;20769;-63
2023/04/17 09:56:48;;;;;;;7.53;5.63;;;;;;;6.86;100.00;97189.22;10537780;28;20210;-66
2023/04/17 10:01:49;;;;;;;7.97;5.20;;;;;;;6.68;100.00;97186.31;10519901;28;20250;-65
2023/04/17 10:06:49;;;;;;;8.53;5.30;;;;;;;7.03;100.00;97191.34;10537243;28;20668;-65
2023/04/17 10:11:50;;;;;;;6.23;4.97;;;;;;;6.84;100.00;97189.34;10537262;28;20211;-65
2023/04/17 10:16:51;;;;;;;6.50;5.80;;;;;;;6.75;100.00;97188.31;10519049;28;20218;-64
2023/04/17 10:22:16;;;;;;;10.73;6.90;;;;;;;6.79;100.00;97192.31;10535113;28;20221;-64
2023/04/17 10:27:26;;;;;;;11.73;7.67;;;;;;;6.90;100.00;97190.66;10536813;28;20606;-65
2023/04/17 10:32:27;;;;;;;9.47;6.33;;;;;;;6.95;100.00;97191.97;10536165;28;20260;-65
2023/04/17 10:37:46;;;;;;;8.43;7.17;;;;;;;7.00;100.00;97191.59;10536348;28;20206;-65
2023/04/17 10:43:21;;;;;;;9.43;7.03;;;;;;;7.19;100.00;97187.50;10534995;28;20241;-64
2023/04/17 10:48:25;;;;;;;9.57;7.30;;;;;;;7.44;100.00;97178.50;10518508;28;20552;-65
2023/04/17 10:53:42;;;;;;;11.13;8.43;;;;;;;7.32;100.00;97175.16;10517730;28;20206;-65
2023/04/17 10:58:59;;;;;;;9.70;8.77;;;;;;;7.17;100.00;97165.94;10510709;28;20182;-65
2023/04/17 11:04:00;;;;;;;14.80;9.23;;;;;;;7.33;100.00;97168.97;10512026;28;20217;-65
2023/04/17 11:09:00;;;;;;;14.13;9.60;;;;;;;6.90;100.00;97168.03;10512807;28;20190;-66
2023/04/17 11:14:10;;;;;;;12.53;11.23;;;;;;;6.95;100.00;97158.09;10512214;28;20601;-66
2023/04/17 11:19:12;;;;;;;13.10;9.97;;;;;;;7.09;100.00;97170.00;10511893;28;20603;-66
2023/04/17 11:24:12;;;;;;;12.97;10.50;;;;;;;7.23;100.00;97166.28;10511820;28;20211;-64
2023/04/17 11:29:20;;;;;;;12.87;9.33;;;;;;;7.50;100.00;97165.81;10511979;28;20243;-67
2023/04/17 11:34:21;;;;;;;10.20;7.00;;;;;;;7.42;100.00;97157.78;10508975;28;20385;-65
2023/04/17 11:39:22;;;;;;;9.20;7.87;;;;;;;7.55;100.00;97170.66;10512069;28;20218;-63
2023/04/17 11:44:24;;;;;;;12.23;8.23;;;;;;;7.46;100.00;97171.41;10506421;28;20258;-66
2023/04/17 11:49:29;;;;;;;9.33;8.23;;;;;;;7.59;100.00;97179.03;10497628;28;20206;-65
2023/04/17 11:54:34;;;;;;;11.77;9.37;;;;;;;7.29;100.00;97167.56;10528500;28;20207;-67
2023/04/17 11:59:36;;;;;;;12.50;9.17;;;;;;;6.97;100.00;97179.63;10541569;28;20309;-66
2023/04/17 12:04:38;;;;;;;13.03;10.53;;;;;;;6.63;100.00;97181.47;10541036;28;20186;-65
2023/04/17 12:09:38;;;;;;;14.10;10.30;;;;;;;6.68;100.00;97181.94;10541776;28;20183;-66
2023/04/17 12:14:38;;;;;;;12.10;10.00;;;;;;;6.50;100.00;97188.59;10541975;28;20186;-66
2023/04/17 12:19:39;;;;;;;13.90;10.17;;;;;;;6.48;100.00;97199.13;10535299;28;20271;-65
2023/04/17 12:24:39;;;;;;;18.50;11.23;;;;;;;6.39;100.00;97197.22;10541820;28;20198;-66
2023/04/17 12:29:40;;;;;;;14.30;11.57;;;;;;;6.47;100.00;97196.63;10541686;28;20619;-65
2023/04/17 12:34:40;;;;;;;14.20;11.27;;;;;;;6.48;100.00;97195.66;10515085;28;20682;-66
2023/04/17 12:39:40;;;;;;;18.23;12.40;;;;;;;6.60;100.00;97194.75;10498831;28;20692;-65
2023/04/17 12:44:41;;;;;;;18.07;12.10;;;;;;;6.63;100.00;97197.09;10499080;28;20199;-64
2023/04/17 12:49:41;;;;;;;15.87;10.90;;;;;;;6.50;100.00;97196.38;10500953;28;20279;-66
2023/04/17 12:54:41;;;;;;;17.20;10.97;;;;;;;6.67;100.00;97190.69;10513539;28;20195;-65
2023/04/17 12:59:42;;;;;;;18.57;10.90;;;;;;;6.93;100.00;97187.81;10517196;28;20226;-65
2023/04/17 13:04:42;;;;;;;14.83;9.10;;;;;;;7.21;100.00;97185.59;10517473;28;20290;-64
2023/04/17 13:09:43;;;;;;;11.93;9.27;;;;;;;6.85;100.00;97182.38;10517518;28;20203;-65
2023/04/17 13:14:43;;;;;;;13.40;10.17;;;;;;;6.21;100.00;97183.84;10514870;28;20199;-63
2023/04/17 13:19:44;;;;;;;15.83;10.23;;;;;;;6.16;100.00;97196.38;10516709;28;20698;-65
2023/04/17 13:24:44;;;;;;;17.47;11.37;;;;;;;6.23;100.00;97203.59;10517261;28;20564;-64
2023/04/17 13:29:44;;;;;;;15.13;11.77;;;;;;;6.28;100.00;97197.19;10507103;28;20267;-62
2023/04/17 13:34:45;;;;;;;13.50;10.50;;;;;;;6.22;100.00;97199.34;10512529;28;20186;-63
2023/04/17 13:39:45;;;;;;;13.67;10.60;;;;;;;6.07;100.00;97195.31;10514308;28;20218;-65
2023/04/17 13:44:46;;;;;;;15.50;10.70;;;;;;;6.07;100.00;97195.31;10532339;28;20199;-65
2023/04/17 13:49:46;;;;;;;14.63;11.40;;;;;;;6.30;100.00;97192.72;10537653;28;20191;-64
2023/04/17 13:54:47;;;;;;;17.00;10.10;;;;;;;6.39;100.00;97187.63;10509194;28;20206;-65
2023/04/17 13:59:47;;;;;;;12.83;10.30;;;;;;;6.44;100.00;97184.66;10491343;28;20219;-65
2023/04/17 14:04:48;;;;;;;11.67;10.30;;;;;;;6.45;100.00;97186.34;10492418;28;20219;-66
2023/04/17 14:09:49;;;;;;;14.53;10.67;;;;;;;6.43;100.00;97191.66;10523495;28;20281;-67
2023/04/17 14:14:49;;;;;;;13.50;10.67;;;;;;;6.66;100.00;97183.00;10533813;28;20197;-66
2023/04/17 14:19:51;;;;;;;13.43;10.33;;;;;;;6.59;100.00;97180.88;10514896;28;20302;-67
2023/04/17 14:24:51;;;;;;;13.60;10.87;;;;;;;6.42;100.00;97176.97;10514182;28;20187;-66
2023/04/17 14:29:51;;;;;;;14.27;10.30;;;;;;;6.18;100.00;97181.47;10508349;28;20273;-66
2023/04/17 14:34:52;;;;;;;13.20;10.00;;;;;;;6.24;100.00;97184.44;10510263;28;20202;-66
2023/04/17 14:39:52;;;;;;;17.97;11.23;;;;;;;6.22;100.00;97188.94;10510969;28;20210;-67
2023/04/17 14:44:52;;;;;;;16.90;11.23;;;;;;;6.16;100.00;97185.97;10513934;28;20289;-68
2023/04/17 14:49:53;;;;;;;15.93;10.97;;;;;;;6.34;100.00;97191.53;10517301;28;20191;-66
2023/04/17 14:54:54;;;;;;;18.47;12.50;;;;;;;6.20;100.00;97192.59;10474850;28;20195;-67
2023/04/17 14:59:54;;;;;;;17.40;11.63;;;;;;;6.17;100.00;97196.25;10490322;28;20215;-66
2023/04/17 15:04:54;;;;;;;17.90;12.57;;;;;;;5.85;100.00;97196.03;10501476;28;20195;-66
2023/04/17 15:09:55;;;;;;;14.97;11.37;;;;;;;5.65;100.00;97195.78;10512175;28;20187;-67
2023/04/17 15:14:55;;;;;;;17.70;11.83;;;;;;;5.71;100.00;97202.28;10504838;28;20186;-66
2023/04/17 15:19:57;;;;;;;18.73;12.73;;;;;;;5.62;100.00;97208.16;10516456;28;20309;-66
2023/04/17 15:24:58;;;;;;;19.03;13.77;;;;;;;5.74;100.00;97214.22;10525438;28;20198;-65
2023/04/17 15:29:58;;;;;;;17.07;12.83;;;;;;;5.73;100.00;97213.41;10530900;28;20274;-65
2023/04/17 15:34:58;;;;;;;29.73;19.43;;;;;;;5.86;100.00;97223.72;10516791;28;20187;-65
2023/04/17 15:39:59;;;;;;;27.63;19.30;;;;;;;5.77;100.00;97221.78;10502299;28;20574;-64
2023/04/17 15:44:59;;;;;;;24.80;21.37;;;;;;;5.77;100.00;97225.22;10511429;28;20554;-64
2023/04/17 15:50:00;;;;;;;25.40;17.40;;;;;;;5.63;100.00;97220.22;10531336;28;20553;-65
2023/04/17 15:55:00;;;;;;;22.67;15.27;;;;;;;5.76;100.00;97222.72;10514963;28;20191;-64
2023/04/17 16:00:00;;;;;;;19.97;14.67;;;;;;;5.83;100.00;97210.94;10489006;28;20230;-65
2023/04/17 16:05:02;;;;;;;24.73;15.77;;;;;;;5.87;100.00;97212.38;10489444;28;20210;-65
2023/04/17 16:10:02;;;;;;;20.20;14.90;;;;;;;5.89;100.00;97210.47;10489625;28;20215;-64
2023/04/17 16:15:03;;;;;;;20.50;14.27;;;;;;;5.95;100.00;97202.22;10510054;28;20564;-65
2023/04/17 16:20:04;;;;;;;18.17;11.50;;;;;;;6.02;100.00;97203.44;10527589;28;20222;-65
2023/04/17 16:25:05;;;;;;;16.00;10.83;;;;;;;5.93;100.00;97193.72;10510274;28;20202;-65
2023/04/17 16:30:06;;;;;;;13.70;10.77;;;;;;;5.93;100.00;97191.13;10507374;28;20214;-64
2023/04/17 16:35:07;;;;;;;15.37;10.17;;;;;;;6.05;100.00;97207.59;10509576;28;20191;-64
2023/04/17 16:40:08;;;;;;;15.03;9.67;;;;;;;5.93;100.00;97203.28;10524494;28;20230;-64
2023/04/17 16:45:08;;;;;;;14.07;10.37;;;;;;;5.89;100.00;97208.69;10518865;28;20244;-65
2023/04/17 16:50:09;;;;;;;19.23;12.53;;;;;;;5.63;100.00;97209.81;10496861;28;21079;-66
2023/04/17 16:55:10;;;;;;;17.83;11.93;;;;;;;5.54;100.00;97216.50;10496411;28;20195;-64
2023/04/17 17:00:11;;;;;;;15.80;11.23;;;;;;;5.54;100.00;97217.38;10496293;28;20284;-65
2023/04/17 17:05:11;;;;;;;14.73;10.60;;;;;;;5.45;100.00;97218.03;10495739;28;20260;-65
2023/04/17 17:10:11;;;;;;;16.03;11.27;;;;;;;5.26;100.00;97233.28;10495909;28;20207;-64
2023/04/17 17:15:12;;;;;;;24.80;17.20;;;;;;;5.28;100.00;97229.66;10495816;28;20199;-65
2023/04/17 17:20:12;;;;;;;12.63;9.77;;;;;;;5.14;100.00;97241.00;10504943;28;20225;-64
2023/04/17 17:25:13;;;;;;;12.73;8.73;;;;;;;5.04;100.00;97241.78;10521139;28;20263;-64
2023/04/17 17:30:13;;;;;;;10.70;8.03;;;;;;;5.05;100.00;97246.03;10519150;28;20215;-64
2023/04/17 17:35:14;;;;;;;10.33;8.60;;;;;;;5.11;100.00;97249.00;10520276;28;20254;-65
2023/04/17 17:40:14;;;;;;;14.57;8.30;;;;;;;5.06;100.00;97250.31;10519635;28;20245;-64
2023/04/17 17:45:14;;;;;;;12.90;7.37;;;;;;;5.15;100.00;97257.44;10519712;28;20806;-63
2023/04/17 17:50:15;;;;;;;12.83;8.00;;;;;;;5.02;100.00;97254.03;10519457;28;20221;-62
2023/04/17 17:55:15;;;;;;;9.80;7.53;;;;;;;4.91;100.00;97253.03;10518416;28;20569;-64
2023/04/17 18:00:16;;;;;;;9.60;7.27;;;;;;;4.94;100.00;97259.78;10518992;28;20229;-65
2023/04/17 18:05:16;;;;;;;9.43;7.77;;;;;;;4.92;100.00;97259.88;10518577;28;20680;-65
2023/04/17 18:10:17;;;;;;;15.73;10.03;;;;;;;4.91;100.00;97262.59;10519108;28;20916;-64
2023/04/17 18:15:17;;;;;;;11.90;9.33;;;;;;;4.78;100.00;97265.22;10518288;28;20202;-64
2023/04/17 18:20:17;;;;;;;11.20;7.57;;;;;;;4.85;100.00;97258.66;10519609;28;20658;-64
2023/04/17 18:25:18;;;;;;;10.83;7.97;;;;;;;4.83;100.00;97276.91;10534754;28;20194;-64
2023/04/17 18:30:18;;;;;;;10.67;8.00;;;;;;;4.82;100.00;97282.22;10534753;28;20216;-66
2023/04/17 18:35:19;;;;;;;64.17;43.57;;;;;;;4.77;100.00;97274.75;10534179;28;20190;-66
2023/04/17 18:40:19;;;;;;;83.80;44.83;;;;;;;4.79;100.00;97288.47;10533713;28;20237;-65
2023/04/17 18:45:19;;;;;;;16.10;10.53;;;;;;;4.95;100.00;97283.03;10534099;28;20290;-65
2023/04/17 18:50:20;;;;;;;15.07;8.77;;;;;;;4.92;100.00;97287.63;10533686;28;20297;-64
2023/04/17 18:55:20;;;;;;;11.50;8.57;;;;;;;4.97;100.00;97283.75;10533856;28;20194;-65
2023/04/17 19:00:20;;;;;;;12.60;10.60;;;;;;;4.85;100.00;97274.22;10533240;28;20226;-65
2023/04/17 19:05:21;;;;;;;11.60;9.03;;;;;;;4.83;100.00;97289.91;10532695;28;20201;-65
2023/04/17 19:10:23;;;;;;;13.90;9.07;;;;;;;4.68;100.00;97290.97;10533047;28;20231;-65
2023/04/17 19:15:23;;;;;;;10.67;8.50;;;;;;;4.77;100.00;97292.09;10532757;28;20201;-65
2023/04/17 19:20:24;;;;;;;10.93;8.90;;;;;;;4.85;100.00;97287.19;10532121;28;20222;-66
2023/04/17 19:25:24;;;;;;;13.40;9.60;;;;;;;4.72;100.00;97287.22;10531991;28;20568;-65
2023/04/17 19:30:24;;;;;;;14.23;9.57;;;;;;;4.72;100.00;97291.59;10532421;28;20209;-65
2023/04/17 19:35:25;;;;;;;11.53;9.70;;;;;;;4.74;100.00;97303.53;10532430;28;20198;-65
2023/04/17 19:40:25;;;;;;;14.27;10.43;;;;;;;4.66;100.00;97297.22;10532193;28;20280;-65
2023/04/17 19:45:26;;;;;;;16.33;10.67;;;;;;;4.58;100.00;97301.16;10532082;28;20202;-64
2023/04/17 19:50:28;;;;;;;14.20;10.50;;;;;;;4.59;100.00;97307.16;10531420;28;20198;-63
2023/04/17 19:55:28;;;;;;;22.57;11.30;;;;;;;4.54;100.00;97315.25;10513946;28;20191;-64
2023/04/17 20:00:29;;;;;;;18.73;12.80;;;;;;;4.56;100.00;97318.56;10531490;28;20210;-65
2023/04/17 20:05:29;;;;;;;22.23;13.33;;;;;;;4.60;100.00;97322.63;10531903;28;20200;-65
2023/04/17 20:10:29;;;;;;;22.20;13.30;;;;;;;4.63;100.00;97319.81;10531346;28;20203;-65
2023/04/17 20:15:30;;;;;;;18.10;13.17;;;;;;;4.58;100.00;97314.13;10533471;28;20193;-65
2023/04/17 20:20:30;;;;;;;24.80;15.17;;;;;;;4.71;100.00;97324.50;10534462;28;20308;-63
2023/04/17 20:25:30;;;;;;;27.40;15.50;;;;;;;4.55;100.00;97322.13;10536518;28;20202;-65
2023/04/17 20:30:32;;;;;;;22.33;15.10;;;;;;;4.53;100.00;97323.16;10534875;28;20214;-66
2023/04/17 20:35:32;;;;;;;23.93;15.23;;;;;;;4.53;100.00;97320.56;10536288;28;20199;-63
2023/04/17 20:40:32;;;;;;;23.13;15.33;;;;;;;4.56;100.00;97317.75;10534405;28;20244;-65
2023/04/17 20:45:33;;;;;;;27.00;15.97;;;;;;;4.52;100.00;97324.91;10533370;28;20198;-64
2023/04/17 20:50:33;;;;;;;28.30;17.37;;;;;;;4.46;100.00;97322.75;10529718;28;20263;-64
2023/04/17 20:55:35;;;;;;;31.43;17.30;;;;;;;4.46;100.00;97320.16;10528658;28;20285;-65
2023/04/17 21:00:36;;;;;;;25.83;18.03;;;;;;;4.38;100.00;97330.19;10531719;28;20261;-63
2023/04/17 21:05:36;;;;;;;28.80;18.23;;;;;;;4.38;100.00;97338.81;10533657;28;20282;-66
2023/04/17 21:10:36;;;;;;;23.03;15.17;;;;;;;4.42;100.00;97352.41;10532636;28;20215;-63
2023/04/17 21:15:37;;;;;;;26.30;16.17;;;;;;;4.37;100.00;97355.31;10532706;28;20209;-65
2023/04/17 21:20:37;;;;;;;23.30;14.57;;;;;;;4.38;100.00;97351.78;10531617;28;20246;-65
2023/04/17 21:25:38;;;;;;;24.63;14.50;;;;;;;4.33;100.00;97350.44;10531519;28;20190;-65
2023/04/17 21:30:38;;;;;;;25.67;14.33;;;;;;;4.36;100.00;97360.59;10530180;28;20206;-65
2023/04/17 21:35:38;;;;;;;27.17;14.77;;;;;;;4.25;100.00;97359.53;10533703;28;20190;-64
2023/04/17 21:40:39;;;;;;;29.77;15.40;;;;;;;4.35;100.00;97359.78;10531864;28;20263;-64
2023/04/17 21:45:39;;;;;;;25.30;15.00;;;;;;;4.40;100.00;97369.84;10533775;28;20282;-65
2023/04/17 21:50:40;;;;;;;32.87;15.37;;;;;;;4.30;100.00;97372.19;10528985;28;20218;-65
2023/04/17 21:55:46;;;;;;;29.03;15.60;;;;;;;4.34;100.00;97372.84;10534701;28;20205;-66
2023/04/17 22:00:46;;;;;;;38.10;17.00;;;;;;;4.34;100.00;97373.66;10531660;28;20215;-68
2023/04/17 22:05:49;;;;;;;30.40;16.60;;;;;;;4.39;100.00;97381.16;10520550;28;20651;-65
2023/04/17 22:10:50;;;;;;;33.90;16.37;;;;;;;4.40;100.00;97388.00;10518943;28;20207;-65
2023/04/17 22:15:51;;;;;;;38.70;15.80;;;;;;;4.39;100.00;97383.75;10526759;28;20195;-66
2023/04/17 22:20:51;;;;;;;36.77;16.40;;;;;;;4.42;100.00;97383.53;10524271;28;20693;-65
2023/04/17 22:25:51;;;;;;;36.17;15.97;;;;;;;4.42;100.00;97383.53;10531207;28;20692;-66
2023/04/17 22:30:52;;;;;;;29.33;12.80;;;;;;;4.54;100.00;97389.69;10532034;28;20609;-66
2023/04/17 22:35:52;;;;;;;44.20;15.57;;;;;;;4.35;100.00;97390.91;10531306;28;20199;-66
2023/04/17 22:40:53;;;;;;;33.70;14.73;;;;;;;4.41;100.00;97393.09;10529533;28;20325;-66
2023/04/17 22:45:54;;;;;;;35.23;16.90;;;;;;;4.39;100.00;97394.94;10529567;28;20197;-65
2023/04/17 22:50:55;;;;;;;38.53;14.83;;;;;;;4.43;100.00;97406.78;10520487;28;20558;-65
2023/04/17 22:56:02;;;;;;;31.43;14.90;;;;;;;4.45;100.00;97404.91;10529105;28;20197;-65
2023/04/17 23:01:02;;;;;;;39.83;15.27;;;;;;;4.41;100.00;97407.81;10529806;28;20303;-66